createdAt,value
2022-12-01T00:00:37.624Z,4.47
2022-12-01T00:01:37.663Z,4.47
2022-12-01T00:02:37.811Z,4.37
2022-12-01T00:03:37.586Z,4.85
2022-12-01T00:04:37.555Z,5.04
2022-12-01T00:05:37.516Z,5.23
2022-12-01T00:06:37.502Z,5.04
2022-12-01T00:07:37.511Z,4.37
2022-12-01T00:08:37.450Z,4.08
2022-12-01T00:09:37.429Z,3.90
2022-12-01T00:10:37.406Z,3.52
2022-12-01T00:11:37.379Z,3.33
2022-12-01T00:12:37.356Z,3.61
2022-12-01T00:13:37.341Z,3.42
2022-12-01T00:14:37.305Z,3.33
2022-12-01T00:15:37.284Z,3.04
2022-12-01T00:16:37.308Z,2.66
2022-12-01T00:17:37.245Z,2.94
2022-12-01T00:18:37.220Z,2.47
2022-12-01T00:19:37.202Z,2.28
2022-12-01T00:20:37.197Z,2.37
2022-12-01T00:21:37.158Z,2.47
2022-12-01T00:22:37.130Z,2.37
2022-12-01T00:23:37.100Z,2.47
2022-12-01T00:24:37.076Z,2.37
2022-12-01T00:25:37.062Z,2.37
2022-12-01T00:26:37.034Z,1.61
2022-12-01T00:27:37.006Z,1.42
2022-12-01T00:28:36.993Z,1.61
2022-12-01T00:29:36.974Z,1.61
2022-12-01T00:30:36.940Z,1.52
2022-12-01T00:31:36.973Z,1.42
2022-12-01T00:32:36.902Z,1.52
2022-12-01T00:33:36.885Z,1.90
2022-12-01T00:34:36.850Z,1.80
2022-12-01T00:35:36.837Z,1.90
2022-12-01T00:36:36.823Z,2.37
2022-12-01T00:37:36.788Z,1.90
2022-12-01T00:38:36.762Z,1.80
2022-12-01T00:39:36.744Z,1.52
2022-12-01T00:40:36.716Z,1.71
2022-12-01T00:41:36.699Z,2.19
2022-12-01T00:42:36.670Z,1.80
2022-12-01T00:43:36.650Z,2.09
2022-12-01T00:44:36.619Z,1.61
2022-12-01T00:45:36.697Z,1.52
2022-12-01T00:46:36.575Z,1.42
2022-12-01T00:47:36.562Z,1.04
2022-12-01T00:48:36.534Z,0.67
2022-12-01T00:49:36.519Z,0.76
2022-12-01T00:50:36.492Z,1.04
2022-12-01T00:51:36.471Z,0.67
2022-12-01T00:52:36.459Z,0.76
2022-12-01T00:53:36.422Z,0.19
2022-12-01T00:54:36.402Z,0.00
2022-12-01T00:55:36.371Z,0.00
2022-12-01T00:56:36.344Z,0.00
2022-12-01T00:57:36.332Z,0.00
2022-12-01T00:58:36.305Z,0.00
2022-12-01T00:59:36.272Z,0.00
2022-12-01T01:00:36.251Z,0.00
2022-12-01T01:01:36.269Z,0.00
2022-12-01T01:02:36.227Z,0.00
2022-12-01T01:03:36.186Z,0.00
2022-12-01T01:04:36.169Z,0.00
2022-12-01T01:05:36.147Z,0.00
2022-12-01T01:06:36.119Z,0.00
2022-12-01T01:07:36.160Z,0.00
2022-12-01T01:08:36.088Z,0.00
2022-12-01T01:09:36.054Z,0.00
2022-12-01T01:10:36.032Z,0.00
2022-12-01T01:11:36.023Z,0.00
2022-12-01T01:12:36.035Z,0.00
2022-12-01T01:13:35.956Z,0.00
2022-12-01T01:14:35.933Z,0.00
2022-12-01T01:15:35.920Z,0.00
2022-12-01T01:16:35.964Z,0.00
2022-12-01T01:17:35.864Z,0.00
2022-12-01T01:18:35.840Z,0.00
2022-12-01T01:19:35.826Z,0.00
2022-12-01T01:20:35.793Z,0.00
2022-12-01T01:21:35.779Z,0.00
2022-12-01T01:22:35.758Z,0.00
2022-12-01T01:23:35.731Z,0.00
2022-12-01T01:24:35.728Z,0.00
2022-12-01T01:25:35.689Z,0.00
2022-12-01T01:26:35.657Z,0.00
2022-12-01T01:27:35.639Z,0.00
2022-12-01T01:28:35.609Z,0.00
2022-12-01T01:29:35.590Z,0.00
2022-12-01T01:30:35.703Z,0.00
2022-12-01T01:31:35.554Z,0.00
2022-12-01T01:32:35.514Z,0.00
2022-12-01T01:33:35.512Z,0.00
2022-12-01T01:34:35.470Z,0.00
2022-12-01T01:35:35.456Z,0.00
2022-12-01T01:36:35.424Z,0.00
2022-12-01T01:37:35.408Z,0.00
2022-12-01T01:38:35.385Z,0.00
2022-12-01T01:39:35.360Z,0.00
2022-12-01T01:40:35.348Z,0.00
2022-12-01T01:41:35.316Z,0.09
2022-12-01T01:42:35.295Z,0.76
2022-12-01T01:43:35.269Z,1.04
2022-12-01T01:44:35.247Z,0.76
2022-12-01T01:45:35.300Z,1.04
2022-12-01T01:46:35.308Z,1.52
2022-12-01T01:47:35.183Z,1.80
2022-12-01T01:48:35.145Z,2.19
2022-12-01T01:49:35.131Z,1.90
2022-12-01T01:50:35.111Z,2.09
2022-12-01T01:51:35.078Z,1.90
2022-12-01T01:52:35.067Z,2.00
2022-12-01T01:53:35.044Z,1.80
2022-12-01T01:54:35.006Z,1.52
2022-12-01T01:55:34.993Z,1.42
2022-12-01T01:56:34.995Z,1.61
2022-12-01T01:57:34.953Z,1.52
2022-12-01T01:58:34.978Z,2.09
2022-12-01T01:59:34.901Z,1.90
2022-12-01T02:00:34.878Z,1.71
2022-12-01T02:01:34.956Z,2.47
2022-12-01T02:02:34.931Z,1.71
2022-12-01T02:03:34.805Z,1.52
2022-12-01T02:04:34.778Z,0.85
2022-12-01T02:05:34.764Z,0.47
2022-12-01T02:06:34.732Z,0.47
2022-12-01T02:07:34.784Z,0.38
2022-12-01T02:08:34.695Z,0.00
2022-12-01T02:09:34.673Z,0.00
2022-12-01T02:10:34.640Z,0.00
2022-12-01T02:11:34.626Z,0.00
2022-12-01T02:12:34.623Z,0.00
2022-12-01T02:13:34.581Z,0.00
2022-12-01T02:14:34.552Z,0.67
2022-12-01T02:15:34.533Z,0.47
2022-12-01T02:16:34.622Z,0.57
2022-12-01T02:17:40.236Z,0.00
2022-12-01T02:18:34.457Z,0.00
2022-12-01T02:19:34.441Z,0.00
2022-12-01T02:20:34.414Z,0.00
2022-12-01T02:21:34.392Z,0.00
2022-12-01T02:22:34.369Z,0.00
2022-12-01T02:23:34.343Z,0.00
2022-12-01T02:24:34.321Z,0.00
2022-12-01T02:25:34.294Z,0.00
2022-12-01T02:26:34.273Z,0.00
2022-12-01T02:27:34.253Z,0.00
2022-12-01T02:28:34.249Z,0.00
2022-12-01T02:29:34.201Z,0.00
2022-12-01T02:30:34.213Z,0.00
2022-12-01T02:31:34.160Z,0.00
2022-12-01T02:32:34.138Z,0.00
2022-12-01T02:33:34.111Z,0.00
2022-12-01T02:34:34.090Z,0.00
2022-12-01T02:35:34.066Z,0.00
2022-12-01T02:36:34.046Z,0.28
2022-12-01T02:37:34.018Z,1.23
2022-12-01T02:38:33.998Z,1.23
2022-12-01T02:39:33.973Z,1.52
2022-12-01T02:40:33.947Z,1.33
2022-12-01T02:41:33.930Z,1.61
2022-12-01T02:42:33.903Z,1.52
2022-12-01T02:43:33.885Z,1.52
2022-12-01T02:44:33.881Z,1.14
2022-12-01T02:45:33.832Z,1.42
2022-12-01T02:46:33.873Z,2.09
2022-12-01T02:47:33.791Z,3.80
2022-12-01T02:48:33.764Z,3.70
2022-12-01T02:49:33.745Z,3.61
2022-12-01T02:50:33.716Z,3.14
2022-12-01T02:51:33.706Z,3.14
2022-12-01T02:52:33.678Z,3.33
2022-12-01T02:53:33.652Z,2.47
2022-12-01T02:54:33.624Z,2.75
2022-12-01T02:55:33.607Z,3.23
2022-12-01T02:56:33.578Z,3.42
2022-12-01T02:57:33.559Z,3.61
2022-12-01T02:58:33.536Z,3.04
2022-12-01T02:59:33.516Z,3.04
2022-12-01T03:00:33.511Z,3.80
2022-12-01T03:01:33.478Z,4.18
2022-12-01T03:02:33.500Z,4.37
2022-12-01T03:03:33.425Z,4.37
2022-12-01T03:04:33.397Z,4.37
2022-12-01T03:05:33.377Z,4.85
2022-12-01T03:06:33.346Z,4.56
2022-12-01T03:07:33.453Z,4.46
2022-12-01T03:08:33.302Z,4.18
2022-12-01T03:09:33.280Z,3.89
2022-12-01T03:10:33.254Z,3.52
2022-12-01T03:11:33.234Z,3.52
2022-12-01T03:12:33.209Z,3.42
2022-12-01T03:13:33.185Z,3.89
2022-12-01T03:14:33.164Z,3.89
2022-12-01T03:15:33.149Z,3.89
2022-12-01T03:16:33.203Z,3.80
2022-12-01T03:17:33.094Z,3.61
2022-12-01T03:18:33.070Z,3.52
2022-12-01T03:19:33.052Z,3.42
2022-12-01T03:20:33.024Z,3.99
2022-12-01T03:21:32.998Z,3.80
2022-12-01T03:22:32.978Z,3.14
2022-12-01T03:23:32.959Z,2.47
2022-12-01T03:24:32.950Z,2.00
2022-12-01T03:25:32.906Z,1.71
2022-12-01T03:26:32.889Z,1.90
2022-12-01T03:27:32.859Z,1.61
2022-12-01T03:28:32.851Z,1.71
2022-12-01T03:29:32.815Z,2.19
2022-12-01T03:30:32.793Z,2.00
2022-12-01T03:31:32.837Z,2.37
2022-12-01T03:32:32.768Z,2.66
2022-12-01T03:33:32.726Z,2.37
2022-12-01T03:34:32.708Z,2.56
2022-12-01T03:35:32.678Z,2.75
2022-12-01T03:36:32.653Z,2.85
2022-12-01T03:37:32.642Z,3.04
2022-12-01T03:38:32.615Z,2.37
2022-12-01T03:39:32.581Z,2.19
2022-12-01T03:40:32.561Z,1.61
2022-12-01T03:41:32.537Z,1.52
2022-12-01T03:42:32.515Z,1.42
2022-12-01T03:43:32.494Z,1.23
2022-12-01T03:44:32.477Z,0.85
2022-12-01T03:45:32.449Z,0.95
2022-12-01T03:46:32.512Z,0.85
2022-12-01T03:47:32.401Z,0.95
2022-12-01T03:48:32.395Z,1.14
2022-12-01T03:49:32.354Z,1.61
2022-12-01T03:50:32.334Z,1.33
2022-12-01T03:51:32.307Z,1.42
2022-12-01T03:52:32.282Z,1.42
2022-12-01T03:53:32.262Z,1.33
2022-12-01T03:54:32.243Z,1.33
2022-12-01T03:55:32.214Z,1.52
2022-12-01T03:56:32.195Z,1.71
2022-12-01T03:57:32.164Z,2.47
2022-12-01T03:58:32.154Z,3.52
2022-12-01T03:59:32.127Z,3.42
2022-12-01T04:00:32.104Z,2.94
2022-12-01T04:01:32.140Z,2.66
2022-12-01T04:02:32.102Z,2.56
2022-12-01T04:03:32.027Z,2.00
2022-12-01T04:04:32.031Z,2.47
2022-12-01T04:05:31.980Z,2.47
2022-12-01T04:06:31.957Z,2.47
2022-12-01T04:07:32.030Z,2.66
2022-12-01T04:08:31.911Z,3.61
2022-12-01T04:09:31.890Z,4.75
2022-12-01T04:10:31.861Z,5.04
2022-12-01T04:11:32.952Z,5.51
2022-12-01T04:12:31.825Z,5.61
2022-12-01T04:13:31.793Z,5.61
2022-12-01T04:14:31.791Z,5.13
2022-12-01T04:15:31.751Z,4.28
2022-12-01T04:16:31.748Z,4.37
2022-12-01T04:17:31.707Z,4.47
2022-12-01T04:18:31.687Z,4.18
2022-12-01T04:19:31.660Z,3.70
2022-12-01T04:20:31.743Z,3.14
2022-12-01T04:21:31.607Z,3.23
2022-12-01T04:22:31.589Z,3.23
2022-12-01T04:23:31.565Z,3.23
2022-12-01T04:24:31.542Z,2.94
2022-12-01T04:25:31.514Z,2.94
2022-12-01T04:26:31.505Z,3.52
2022-12-01T04:27:31.472Z,3.52
2022-12-01T04:28:31.470Z,4.08
2022-12-01T04:29:31.431Z,4.56
2022-12-01T04:30:31.401Z,4.56
2022-12-01T04:31:31.432Z,4.85
2022-12-01T04:32:31.350Z,4.47
2022-12-01T04:33:31.334Z,4.08
2022-12-01T04:34:31.317Z,3.89
2022-12-01T04:35:31.291Z,3.89
2022-12-01T04:36:31.289Z,3.89
2022-12-01T04:37:31.240Z,3.42
2022-12-01T04:38:31.264Z,3.70
2022-12-01T04:39:31.198Z,3.80
2022-12-01T04:40:31.169Z,3.42
2022-12-01T04:41:31.152Z,2.85
2022-12-01T04:42:31.123Z,2.66
2022-12-01T04:43:31.104Z,2.47
2022-12-01T04:44:34.818Z,2.09
2022-12-01T04:45:31.057Z,2.00
2022-12-01T04:46:31.185Z,2.00
2022-12-01T04:47:31.021Z,1.71
2022-12-01T04:48:30.983Z,1.61
2022-12-01T04:49:30.970Z,1.52
2022-12-01T04:50:30.937Z,1.14
2022-12-01T04:51:30.917Z,1.23
2022-12-01T04:52:35.262Z,0.95
2022-12-01T04:53:30.869Z,1.23
2022-12-01T04:54:30.847Z,1.33
2022-12-01T04:55:30.831Z,1.14
2022-12-01T04:56:30.801Z,1.52
2022-12-01T04:57:30.782Z,1.04
2022-12-01T04:58:30.750Z,0.67
2022-12-01T04:59:30.733Z,0.09
2022-12-01T05:00:30.798Z,0.00
2022-12-01T05:01:30.773Z,0.00
2022-12-01T05:02:30.770Z,0.00
2022-12-01T05:03:30.642Z,0.00
2022-12-01T05:04:30.612Z,0.00
2022-12-01T05:05:30.594Z,0.00
2022-12-01T05:06:30.568Z,0.00
2022-12-01T05:07:30.578Z,0.00
2022-12-01T05:08:30.548Z,0.00
2022-12-01T05:09:30.502Z,0.00
2022-12-01T05:10:30.473Z,0.00
2022-12-01T05:11:30.456Z,0.00
2022-12-01T05:12:30.428Z,0.00
2022-12-01T05:13:30.403Z,0.00
2022-12-01T05:14:30.380Z,0.00
2022-12-01T05:15:30.366Z,0.00
2022-12-01T05:16:30.439Z,0.00
2022-12-01T05:17:35.436Z,0.00
2022-12-01T05:18:30.353Z,0.00
2022-12-01T05:19:30.265Z,0.00
2022-12-01T05:20:30.238Z,0.00
2022-12-01T05:21:30.221Z,0.00
2022-12-01T05:22:57.276Z,0.00
2022-12-01T05:23:30.176Z,0.00
2022-12-01T05:24:30.168Z,0.00
2022-12-01T05:25:30.127Z,0.00
2022-12-01T05:26:30.103Z,0.00
2022-12-01T05:27:30.082Z,0.00
2022-12-01T05:28:30.054Z,0.00
2022-12-01T05:29:30.033Z,0.00
2022-12-01T05:30:30.011Z,0.00
2022-12-01T05:31:30.051Z,0.00
2022-12-01T05:32:29.959Z,0.00
2022-12-01T05:33:29.944Z,0.00
2022-12-01T05:34:29.912Z,0.00
2022-12-01T05:35:29.897Z,0.00
2022-12-01T05:36:29.869Z,0.00
2022-12-01T05:37:29.850Z,0.00
2022-12-01T05:38:29.824Z,0.00
2022-12-01T05:39:29.800Z,0.00
2022-12-01T05:40:29.794Z,0.00
2022-12-01T05:41:29.756Z,0.00
2022-12-01T05:42:29.733Z,0.00
2022-12-01T05:43:29.880Z,0.00
2022-12-01T05:44:29.682Z,0.00
2022-12-01T05:45:29.699Z,0.00
2022-12-01T05:46:29.634Z,0.00
2022-12-01T05:47:29.616Z,0.00
2022-12-01T05:48:29.593Z,0.00
2022-12-01T05:49:29.567Z,0.00
2022-12-01T05:50:29.544Z,0.00
2022-12-01T05:51:29.517Z,0.00
2022-12-01T05:52:29.492Z,0.00
2022-12-01T05:53:29.468Z,0.00
2022-12-01T05:54:29.444Z,0.00
2022-12-01T05:55:29.427Z,0.00
2022-12-01T05:56:29.427Z,0.00
2022-12-01T05:57:29.382Z,0.00
2022-12-01T05:58:29.354Z,0.00
2022-12-01T05:59:29.333Z,0.00
2022-12-01T06:00:29.302Z,0.00
2022-12-01T06:01:29.294Z,0.00
2022-12-01T06:02:29.261Z,0.00
2022-12-01T06:03:29.242Z,0.00
2022-12-01T06:04:29.257Z,0.00
2022-12-01T06:05:29.194Z,0.00
2022-12-01T06:06:29.169Z,0.00
2022-12-01T06:07:29.204Z,0.00
2022-12-01T06:08:29.123Z,0.00
2022-12-01T06:09:29.106Z,0.00
2022-12-01T06:10:29.071Z,0.00
2022-12-01T06:11:29.053Z,0.00
2022-12-01T06:12:29.049Z,0.00
2022-12-01T06:13:29.011Z,0.00
2022-12-01T06:14:28.979Z,0.00
2022-12-01T06:15:28.960Z,0.00
2022-12-01T06:16:29.002Z,0.00
2022-12-01T06:17:28.911Z,0.00
2022-12-01T06:18:28.893Z,0.00
2022-12-01T06:19:28.867Z,0.00
2022-12-01T06:20:28.838Z,0.00
2022-12-01T06:21:28.811Z,0.00
2022-12-01T06:22:28.793Z,0.00
2022-12-01T06:23:30.576Z,0.00
2022-12-01T06:24:28.749Z,0.00
2022-12-01T06:25:28.724Z,0.00
2022-12-01T06:26:28.701Z,0.00
2022-12-01T06:27:28.678Z,0.00
2022-12-01T06:28:28.670Z,0.00
2022-12-01T06:29:28.631Z,0.00
2022-12-01T06:30:28.598Z,0.00
2022-12-01T06:31:28.653Z,0.00
2022-12-01T06:32:28.558Z,0.00
2022-12-01T06:33:28.539Z,0.00
2022-12-01T06:34:28.510Z,0.00
2022-12-01T06:35:28.488Z,0.00
2022-12-01T06:36:28.462Z,0.00
2022-12-01T06:37:28.440Z,0.00
2022-12-01T06:38:28.415Z,0.00
2022-12-01T06:39:28.396Z,0.00
2022-12-01T06:40:28.374Z,0.00
2022-12-01T06:41:28.344Z,0.00
2022-12-01T06:42:28.322Z,0.00
2022-12-01T06:43:28.302Z,0.00
2022-12-01T06:44:28.296Z,0.00
2022-12-01T06:45:28.255Z,0.00
2022-12-01T06:46:28.282Z,0.19
2022-12-01T06:47:28.202Z,0.19
2022-12-01T06:48:28.179Z,0.28
2022-12-01T06:49:28.166Z,0.95
2022-12-01T06:50:28.131Z,1.14
2022-12-01T06:51:28.112Z,2.09
2022-12-01T06:52:28.099Z,2.66
2022-12-01T06:53:28.062Z,2.66
2022-12-01T06:54:28.042Z,2.56
2022-12-01T06:55:28.020Z,2.66
2022-12-01T06:56:27.990Z,1.80
2022-12-01T06:57:27.975Z,1.42
2022-12-01T06:58:27.950Z,1.23
2022-12-01T06:59:27.919Z,1.61
2022-12-01T07:00:27.925Z,1.52
2022-12-01T07:01:27.934Z,1.71
2022-12-01T07:02:27.927Z,1.71
2022-12-01T07:03:27.832Z,1.71
2022-12-01T07:04:27.809Z,1.80
2022-12-01T07:05:27.787Z,1.80
2022-12-01T07:06:27.759Z,1.32
2022-12-01T07:07:27.781Z,1.23
2022-12-01T07:08:27.715Z,1.71
2022-12-01T07:09:27.696Z,1.99
2022-12-01T07:10:27.665Z,2.47
2022-12-01T07:11:27.651Z,2.85
2022-12-01T07:12:27.618Z,2.47
2022-12-01T07:13:32.843Z,2.19
2022-12-01T07:14:27.578Z,2.47
2022-12-01T07:15:27.559Z,2.56
2022-12-01T07:16:27.548Z,2.66
2022-12-01T07:17:27.504Z,2.56
2022-12-01T07:18:27.478Z,1.71
2022-12-01T07:19:27.473Z,2.00
2022-12-01T07:20:27.547Z,2.56
2022-12-01T07:21:27.412Z,2.47
2022-12-01T07:22:32.388Z,2.28
2022-12-01T07:23:27.370Z,2.47
2022-12-01T07:24:27.344Z,2.47
2022-12-01T07:25:27.317Z,3.52
2022-12-01T07:26:27.295Z,3.89
2022-12-01T07:27:27.275Z,3.70
2022-12-01T07:28:27.245Z,3.70
2022-12-01T07:29:27.225Z,4.08
2022-12-01T07:30:28.720Z,4.37
2022-12-01T07:31:27.248Z,4.46
2022-12-01T07:32:27.174Z,4.37
2022-12-01T07:33:27.132Z,4.18
2022-12-01T07:34:27.105Z,3.61
2022-12-01T07:35:27.085Z,3.23
2022-12-01T07:36:27.057Z,3.14
2022-12-01T07:37:27.040Z,3.52
2022-12-01T07:38:27.019Z,3.80
2022-12-01T07:39:26.986Z,3.61
2022-12-01T07:40:27.033Z,3.99
2022-12-01T07:41:26.943Z,3.61
2022-12-01T07:42:26.922Z,3.89
2022-12-01T07:43:26.895Z,3.99
2022-12-01T07:44:26.872Z,4.37
2022-12-01T07:45:26.854Z,4.56
2022-12-01T07:46:26.932Z,5.32
2022-12-01T07:47:26.808Z,5.13
2022-12-01T07:48:26.810Z,5.41
2022-12-01T07:49:26.764Z,5.61
2022-12-01T07:50:26.848Z,5.61
2022-12-01T07:51:26.713Z,5.51
2022-12-01T07:52:26.687Z,5.80
2022-12-01T07:53:26.661Z,6.09
2022-12-01T07:54:26.637Z,6.46
2022-12-01T07:55:26.619Z,6.75
2022-12-01T07:56:26.593Z,7.22
2022-12-01T07:57:26.566Z,7.32
2022-12-01T07:58:26.557Z,7.42
2022-12-01T07:59:26.533Z,8.46
2022-12-01T08:00:26.559Z,8.46
2022-12-01T08:01:26.569Z,8.65
2022-12-01T08:02:26.529Z,9.22
2022-12-01T08:03:26.440Z,9.12
2022-12-01T08:04:26.442Z,9.31
2022-12-01T08:05:26.389Z,9.31
2022-12-01T08:06:26.368Z,9.50
2022-12-01T08:07:29.843Z,9.41
2022-12-01T08:08:26.317Z,9.50
2022-12-01T08:09:26.295Z,10.17
2022-12-01T08:10:26.275Z,10.74
2022-12-01T08:11:26.249Z,11.22
2022-12-01T08:12:26.221Z,11.12
2022-12-01T08:13:26.199Z,11.60
2022-12-01T08:14:26.182Z,11.79
2022-12-01T08:15:26.249Z,11.60
2022-12-01T08:16:26.130Z,11.88
2022-12-01T08:17:26.107Z,11.98
2022-12-01T08:18:26.084Z,11.12
2022-12-01T08:19:26.068Z,11.79
2022-12-01T08:20:26.065Z,11.22
2022-12-01T08:21:26.017Z,11.12
2022-12-01T08:22:25.992Z,11.31
2022-12-01T08:23:25.973Z,10.83
2022-12-01T08:24:25.944Z,10.83
2022-12-01T08:25:25.920Z,10.55
2022-12-01T08:26:25.898Z,11.03
2022-12-01T08:27:25.880Z,11.12
2022-12-01T08:28:25.851Z,11.22
2022-12-01T08:29:25.827Z,11.41
2022-12-01T08:30:25.807Z,11.12
2022-12-01T08:31:25.813Z,12.84
2022-12-01T08:32:25.759Z,13.50
2022-12-01T08:33:25.743Z,13.40
2022-12-01T08:34:25.715Z,12.84
2022-12-01T08:35:25.699Z,12.55
2022-12-01T08:36:25.695Z,12.93
2022-12-01T08:37:25.649Z,11.69
2022-12-01T08:38:25.632Z,10.64
2022-12-01T08:39:25.595Z,10.64
2022-12-01T08:40:25.580Z,11.31
2022-12-01T08:41:25.552Z,11.41
2022-12-01T08:42:25.531Z,11.12
2022-12-01T08:43:56.017Z,12.07
2022-12-01T08:44:25.583Z,11.98
2022-12-01T08:45:25.457Z,12.07
2022-12-01T08:46:25.551Z,12.07
2022-12-01T08:47:25.416Z,11.88
2022-12-01T08:48:25.390Z,12.36
2022-12-01T08:49:25.367Z,12.17
2022-12-01T08:50:25.342Z,12.45
2022-12-01T08:51:25.328Z,13.12
2022-12-01T08:52:25.328Z,13.50
2022-12-01T08:53:25.276Z,13.88
2022-12-01T08:54:25.253Z,14.54
2022-12-01T08:55:25.238Z,14.36
2022-12-01T08:56:25.209Z,14.64
2022-12-01T08:57:25.185Z,14.45
2022-12-01T08:58:25.162Z,13.78
2022-12-01T08:59:25.137Z,13.31
2022-12-01T09:00:25.121Z,13.97
2022-12-01T09:01:25.126Z,13.88
2022-12-01T09:02:25.217Z,14.73
2022-12-01T09:03:25.091Z,14.73
2022-12-01T09:04:25.021Z,14.92
2022-12-01T09:05:25.001Z,15.78
2022-12-01T09:06:24.972Z,17.02
2022-12-01T09:07:26.869Z,18.06
2022-12-01T09:08:24.949Z,18.16
2022-12-01T09:09:24.907Z,18.16
2022-12-01T09:10:24.883Z,18.44
2022-12-01T09:11:24.860Z,18.92
2022-12-01T09:12:24.835Z,19.01
2022-12-01T09:13:24.814Z,19.96
2022-12-01T09:14:24.793Z,20.25
2022-12-01T09:15:24.772Z,20.44
2022-12-01T09:16:24.796Z,20.44
2022-12-01T09:17:24.726Z,19.78
2022-12-01T09:18:24.697Z,19.01
2022-12-01T09:19:25.381Z,18.54
2022-12-01T09:20:24.653Z,17.87
2022-12-01T09:21:24.631Z,17.87
2022-12-01T09:22:24.602Z,18.16
2022-12-01T09:23:24.582Z,18.06
2022-12-01T09:24:24.677Z,18.44
2022-12-01T09:25:24.539Z,18.82
2022-12-01T09:26:24.517Z,19.78
2022-12-01T09:27:24.494Z,19.49
2022-12-01T09:28:24.484Z,19.87
2022-12-01T09:29:24.446Z,20.63
2022-12-01T09:30:24.418Z,20.73
2022-12-01T09:31:24.523Z,20.92
2022-12-01T09:32:24.371Z,21.01
2022-12-01T09:33:24.361Z,21.20
2022-12-01T09:34:24.324Z,21.11
2022-12-01T09:35:24.323Z,20.63
2022-12-01T09:36:24.281Z,21.20
2022-12-01T09:37:24.259Z,21.11
2022-12-01T09:38:24.232Z,21.01
2022-12-01T09:39:24.215Z,21.01
2022-12-01T09:40:24.213Z,20.92
2022-12-01T09:41:24.173Z,20.92
2022-12-01T09:42:24.151Z,20.92
2022-12-01T09:43:24.122Z,21.39
2022-12-01T09:44:24.106Z,23.39
2022-12-01T09:45:24.072Z,24.43
2022-12-01T09:46:24.101Z,24.72
2022-12-01T09:47:24.029Z,23.67
2022-12-01T09:48:24.005Z,24.05
2022-12-01T09:49:23.988Z,23.58
2022-12-01T09:50:23.989Z,23.48
2022-12-01T09:51:23.942Z,23.20
2022-12-01T09:52:23.914Z,23.77
2022-12-01T09:53:23.891Z,23.29
2022-12-01T09:54:23.867Z,22.81
2022-12-01T09:55:23.851Z,22.63
2022-12-01T09:56:23.842Z,23.39
2022-12-01T09:57:23.814Z,24.15
2022-12-01T09:58:23.780Z,23.67
2022-12-01T09:59:23.811Z,23.96
2022-12-01T10:00:23.856Z,23.48
2022-12-01T10:01:27.272Z,23.58
2022-12-01T10:02:23.817Z,22.06
2022-12-01T10:03:23.662Z,21.86
2022-12-01T10:04:23.635Z,23.00
2022-12-01T10:05:23.659Z,22.44
2022-12-01T10:06:28.490Z,22.06
2022-12-01T10:07:23.655Z,21.96
2022-12-01T10:08:27.024Z,22.63
2022-12-01T10:09:23.520Z,22.91
2022-12-01T10:10:23.546Z,23.48
2022-12-01T10:11:23.481Z,23.96
2022-12-01T10:12:23.482Z,24.53
2022-12-01T10:13:23.433Z,25.57
2022-12-01T10:14:23.408Z,27.95
2022-12-01T10:15:23.445Z,29.57
2022-12-01T10:16:23.399Z,29.28
2022-12-01T10:17:23.335Z,29.19
2022-12-01T10:18:23.318Z,28.81
2022-12-01T10:19:23.293Z,28.52
2022-12-01T10:20:23.307Z,28.90
2022-12-01T10:21:23.246Z,28.81
2022-12-01T10:22:23.236Z,28.05
2022-12-01T10:23:23.210Z,28.33
2022-12-01T10:24:23.181Z,29.00
2022-12-01T10:25:23.159Z,29.38
2022-12-01T10:26:23.133Z,30.99
2022-12-01T10:27:23.106Z,31.09
2022-12-01T10:28:23.105Z,30.99
2022-12-01T10:29:23.063Z,31.95
2022-12-01T10:30:23.109Z,32.99
2022-12-01T10:31:23.062Z,32.80
2022-12-01T10:32:22.991Z,32.23
2022-12-01T10:33:22.983Z,31.76
2022-12-01T10:34:22.953Z,32.23
2022-12-01T10:35:22.923Z,32.04
2022-12-01T10:36:22.898Z,32.23
2022-12-01T10:37:22.951Z,32.23
2022-12-01T10:38:22.853Z,32.23
2022-12-01T10:39:22.835Z,33.18
2022-12-01T10:40:22.873Z,33.75
2022-12-01T10:41:22.792Z,33.10
2022-12-01T10:42:22.761Z,33.29
2022-12-01T10:43:22.742Z,33.77
2022-12-01T10:44:22.737Z,34.24
2022-12-01T10:45:22.697Z,34.05
2022-12-01T10:46:22.740Z,34.91
2022-12-01T10:47:22.650Z,36.05
2022-12-01T10:48:22.628Z,36.72
2022-12-01T10:49:22.622Z,37.57
2022-12-01T10:50:22.629Z,37.48
2022-12-01T10:51:22.575Z,35.48
2022-12-01T10:52:22.538Z,35.48
2022-12-01T10:53:22.515Z,35.58
2022-12-01T10:54:22.487Z,36.53
2022-12-01T10:55:22.468Z,37.10
2022-12-01T10:56:22.440Z,37.57
2022-12-01T10:57:22.424Z,39.00
2022-12-01T10:58:22.389Z,41.09
2022-12-01T10:59:22.388Z,40.81
2022-12-01T11:00:57.448Z,41.38
2022-12-01T11:01:22.425Z,42.14
2022-12-01T11:02:22.495Z,42.04
2022-12-01T11:03:22.508Z,42.04
2022-12-01T11:04:22.257Z,40.81
2022-12-01T11:05:22.238Z,41.19
2022-12-01T11:06:22.217Z,40.14
2022-12-01T11:07:22.235Z,39.76
2022-12-01T11:08:22.163Z,40.62
2022-12-01T11:09:26.196Z,42.80
2022-12-01T11:10:22.230Z,45.09
2022-12-01T11:11:22.106Z,45.09
2022-12-01T11:12:22.075Z,45.09
2022-12-01T11:13:22.067Z,47.75
2022-12-01T11:14:22.036Z,46.42
2022-12-01T11:15:22.015Z,45.47
2022-12-01T11:16:22.072Z,44.80
2022-12-01T11:17:21.971Z,44.90
2022-12-01T11:18:21.937Z,45.18
2022-12-01T11:19:27.190Z,45.37
2022-12-01T11:20:22.019Z,45.95
2022-12-01T11:21:21.882Z,46.89
2022-12-01T11:22:21.851Z,46.99
2022-12-01T11:23:21.829Z,47.66
2022-12-01T11:24:21.799Z,47.37
2022-12-01T11:25:21.785Z,48.71
2022-12-01T11:26:21.771Z,48.23
2022-12-01T11:27:21.742Z,48.03
2022-12-01T11:28:21.714Z,48.13
2022-12-01T11:29:21.694Z,48.99
2022-12-01T11:30:21.665Z,49.75
2022-12-01T11:31:21.718Z,50.89
2022-12-01T11:32:21.641Z,50.99
2022-12-01T11:33:21.599Z,48.99
2022-12-01T11:34:21.579Z,49.18
2022-12-01T11:35:21.552Z,47.94
2022-12-01T11:36:21.533Z,46.80
2022-12-01T11:37:21.510Z,44.04
2022-12-01T11:38:30.078Z,43.57
2022-12-01T11:39:21.483Z,42.33
2022-12-01T11:40:21.441Z,41.09
2022-12-01T11:41:21.421Z,41.95
2022-12-01T11:42:21.399Z,41.66
2022-12-01T11:43:21.378Z,42.04
2022-12-01T11:45:21.328Z,40.62
2022-12-01T11:46:21.356Z,39.38
2022-12-01T11:47:24.018Z,39.76
2022-12-01T11:48:21.274Z,40.23
2022-12-01T11:49:21.238Z,40.71
2022-12-01T11:50:21.222Z,39.86
2022-12-01T11:51:21.190Z,41.19
2022-12-01T11:52:21.164Z,39.86
2022-12-01T11:53:21.140Z,40.59
2022-12-01T11:54:21.127Z,41.09
2022-12-01T11:55:21.096Z,40.90
2022-12-01T11:56:21.079Z,41.19
2022-12-01T11:57:36.402Z,40.90
2022-12-01T11:58:21.060Z,40.31
2022-12-01T11:59:21.008Z,39.48
2022-12-01T12:00:20.987Z,40.23
2022-12-01T12:01:22.254Z,40.41
2022-12-01T12:02:20.995Z,40.12
2022-12-01T12:03:20.969Z,40.52
2022-12-01T12:04:20.929Z,40.12
2022-12-01T12:05:20.872Z,42.69
2022-12-01T12:07:20.888Z,42.21
2022-12-01T12:08:20.799Z,41.46
2022-12-01T12:09:20.776Z,40.79
2022-12-01T12:10:20.760Z,40.12
2022-12-01T12:11:20.732Z,39.65
2022-12-01T12:12:20.705Z,38.53
2022-12-01T12:13:20.681Z,39.67
2022-12-01T12:14:20.659Z,40.81
2022-12-01T12:15:20.639Z,42.04
2022-12-01T12:16:20.638Z,43.16
2022-12-01T12:17:20.645Z,43.76
2022-12-01T12:18:20.575Z,44.13
2022-12-01T12:19:25.395Z,44.80
2022-12-01T12:20:20.675Z,45.75
2022-12-01T12:21:20.499Z,45.64
2022-12-01T12:22:20.475Z,45.66
2022-12-01T12:23:20.454Z,44.90
2022-12-01T12:24:20.429Z,44.90
2022-12-01T12:25:20.408Z,46.42
2022-12-01T12:26:20.391Z,46.80
2022-12-01T12:27:20.362Z,45.26
2022-12-01T12:28:20.336Z,44.04
2022-12-01T12:29:20.319Z,43.38
2022-12-01T12:30:20.295Z,43.45
2022-12-01T12:31:20.333Z,43.85
2022-12-01T12:32:20.252Z,44.13
2022-12-01T12:33:20.227Z,45.00
2022-12-01T12:34:20.202Z,46.42
2022-12-01T12:35:20.177Z,48.32
2022-12-01T12:36:20.185Z,48.13
2022-12-01T12:37:20.138Z,49.65
2022-12-01T12:38:20.109Z,49.65
2022-12-01T12:39:20.088Z,48.23
2022-12-01T12:40:20.084Z,47.56
2022-12-01T12:41:20.049Z,48.03
2022-12-01T12:42:20.034Z,48.03
2022-12-01T12:43:20.013Z,48.23
2022-12-01T12:44:19.979Z,49.37
2022-12-01T12:45:19.956Z,49.08
2022-12-01T12:46:19.994Z,48.51
2022-12-01T12:47:19.908Z,49.08
2022-12-01T12:48:19.905Z,48.42
2022-12-01T12:49:20.673Z,49.18
2022-12-01T12:50:19.841Z,51.75
2022-12-01T12:51:19.824Z,53.27
2022-12-01T12:52:19.824Z,53.94
2022-12-01T12:53:19.777Z,52.98
2022-12-01T12:54:19.842Z,52.32
2022-12-01T12:55:19.726Z,52.89
2022-12-01T12:56:19.700Z,53.65
2022-12-01T12:57:19.680Z,54.89
2022-12-01T12:58:19.664Z,56.31
2022-12-01T12:59:19.635Z,57.07
2022-12-01T13:00:19.617Z,56.51
2022-12-01T13:01:19.628Z,55.65
2022-12-01T13:02:19.644Z,55.74
2022-12-01T13:03:19.538Z,55.08
2022-12-01T13:04:19.519Z,55.46
2022-12-01T13:05:19.501Z,55.74
2022-12-01T13:06:19.483Z,55.74
2022-12-01T13:07:19.451Z,55.55
2022-12-01T13:08:19.449Z,55.08
2022-12-01T13:09:19.411Z,56.51
2022-12-01T13:10:19.396Z,57.26